sensor_id;sensor_type;location;lat;lon;timestamp;P1;durP1;ratioP1;P2;durP2;ratioP2
64242;SDS011;50573;51.512;5.386;2023-05-14T00:09:24;13.27;;;10.87;;
64242;SDS011;50573;51.512;5.386;2023-05-14T00:19:28;17.83;;;12.18;;
64242;SDS011;50573;51.512;5.386;2023-05-14T00:29:31;21.25;;;12.52;;
64242;SDS011;50573;51.512;5.386;2023-05-14T00:39:35;20.92;;;14.10;;
64242;SDS011;50573;51.512;5.386;2023-05-14T00:49:38;19.80;;;15.40;;
64242;SDS011;50573;51.512;5.386;2023-05-14T00:59:43;23.55;;;16.30;;
64242;SDS011;50573;51.512;5.386;2023-05-14T01:09:47;20.77;;;17.08;;
64242;SDS011;50573;51.512;5.386;2023-05-14T01:20:01;25.95;;;18.25;;
64242;SDS011;50573;51.512;5.386;2023-05-14T01:30:08;25.20;;;19.30;;
64242;SDS011;50573;51.512;5.386;2023-05-14T01:40:18;27.67;;;21.50;;
64242;SDS011;50573;51.512;5.386;2023-05-14T01:50:24;30.83;;;22.97;;
64242;SDS011;50573;51.512;5.386;2023-05-14T02:00:27;34.97;;;23.70;;
64242;SDS011;50573;51.512;5.386;2023-05-14T02:10:33;33.80;;;25.63;;
64242;SDS011;50573;51.512;5.386;2023-05-14T02:20:36;30.97;;;25.23;;
64242;SDS011;50573;51.512;5.386;2023-05-14T02:30:40;33.53;;;24.45;;
64242;SDS011;50573;51.512;5.386;2023-05-14T02:40:43;25.10;;;17.67;;
64242;SDS011;50573;51.512;5.386;2023-05-14T02:50:48;35.60;;;26.05;;
64242;SDS011;50573;51.512;5.386;2023-05-14T03:00:51;36.28;;;26.65;;
64242;SDS011;50573;51.512;5.386;2023-05-14T03:10:56;31.92;;;24.67;;
64242;SDS011;50573;51.512;5.386;2023-05-14T03:20:59;36.00;;;25.93;;
64242;SDS011;50573;51.512;5.386;2023-05-14T03:31:04;39.83;;;30.42;;
64242;SDS011;50573;51.512;5.386;2023-05-14T03:41:07;44.70;;;32.23;;
64242;SDS011;50573;51.512;5.386;2023-05-14T03:51:12;40.40;;;31.17;;
64242;SDS011;50573;51.512;5.386;2023-05-14T04:01:15;44.50;;;34.17;;
64242;SDS011;50573;51.512;5.386;2023-05-14T04:11:19;39.15;;;29.67;;
64242;SDS011;50573;51.512;5.386;2023-05-14T04:21:23;46.08;;;32.22;;
64242;SDS011;50573;51.512;5.386;2023-05-14T04:31:27;48.42;;;34.20;;
64242;SDS011;50573;51.512;5.386;2023-05-14T04:41:30;48.90;;;36.17;;
64242;SDS011;50573;51.512;5.386;2023-05-14T04:51:34;48.92;;;34.10;;
64242;SDS011;50573;51.512;5.386;2023-05-14T05:01:38;44.27;;;33.70;;
64242;SDS011;50573;51.512;5.386;2023-05-14T05:11:42;47.65;;;32.70;;
64242;SDS011;50573;51.512;5.386;2023-05-14T05:21:45;45.90;;;30.17;;
64242;SDS011;50573;51.512;5.386;2023-05-14T05:31:50;45.05;;;30.05;;
64242;SDS011;50573;51.512;5.386;2023-05-14T05:41:53;48.47;;;30.15;;
64242;SDS011;50573;51.512;5.386;2023-05-14T05:51:57;39.63;;;29.17;;
64242;SDS011;50573;51.512;5.386;2023-05-14T06:02:00;44.83;;;29.83;;
64242;SDS011;50573;51.512;5.386;2023-05-14T06:12:05;42.75;;;28.42;;
64242;SDS011;50573;51.512;5.386;2023-05-14T06:22:09;37.47;;;25.27;;
64242;SDS011;50573;51.512;5.386;2023-05-14T06:32:13;36.15;;;24.48;;
64242;SDS011;50573;51.512;5.386;2023-05-14T06:42:16;36.35;;;24.60;;
64242;SDS011;50573;51.512;5.386;2023-05-14T06:52:22;34.00;;;22.87;;
64242;SDS011;50573;51.512;5.386;2023-05-14T07:02:25;33.77;;;23.20;;
64242;SDS011;50573;51.512;5.386;2023-05-14T07:12:29;31.17;;;21.55;;
64242;SDS011;50573;51.512;5.386;2023-05-14T07:22:32;31.38;;;20.02;;
64242;SDS011;50573;51.512;5.386;2023-05-14T07:32:37;28.50;;;19.90;;
64242;SDS011;50573;51.512;5.386;2023-05-14T07:52:44;25.08;;;19.08;;
64242;SDS011;50573;51.512;5.386;2023-05-14T08:02:47;26.92;;;17.98;;
64242;SDS011;50573;51.512;5.386;2023-05-14T08:12:52;22.70;;;18.00;;
64242;SDS011;50573;51.512;5.386;2023-05-14T08:22:55;22.65;;;17.10;;
64242;SDS011;50573;51.512;5.386;2023-05-14T08:32:59;24.52;;;16.75;;
64242;SDS011;50573;51.512;5.386;2023-05-14T08:53:06;22.00;;;16.02;;
64242;SDS011;50573;51.512;5.386;2023-05-14T09:03:10;18.33;;;14.20;;
64242;SDS011;50573;51.512;5.386;2023-05-14T09:13:15;24.05;;;13.48;;
64242;SDS011;50573;51.512;5.386;2023-05-14T09:23:18;20.05;;;12.77;;
64242;SDS011;50573;51.512;5.386;2023-05-14T09:33:26;19.30;;;11.63;;
64242;SDS011;50573;51.512;5.386;2023-05-14T09:43:29;19.95;;;11.70;;
64242;SDS011;50573;51.512;5.386;2023-05-14T09:53:34;14.43;;;10.50;;
64242;SDS011;50573;51.512;5.386;2023-05-14T10:03:37;13.77;;;10.15;;
64242;SDS011;50573;51.512;5.386;2023-05-14T10:13:44;19.77;;;10.17;;
64242;SDS011;50573;51.512;5.386;2023-05-14T10:23:51;14.52;;;10.50;;
64242;SDS011;50573;51.512;5.386;2023-05-14T10:33:56;11.77;;;7.03;;
64242;SDS011;50573;51.512;5.386;2023-05-14T10:44:00;9.57;;;7.70;;
64242;SDS011;50573;51.512;5.386;2023-05-14T10:54:12;18.52;;;10.52;;
64242;SDS011;50573;51.512;5.386;2023-05-14T11:04:16;13.80;;;8.18;;
64242;SDS011;50573;51.512;5.386;2023-05-14T11:14:21;13.25;;;9.10;;
64242;SDS011;50573;51.512;5.386;2023-05-14T11:24:24;11.45;;;8.13;;
64242;SDS011;50573;51.512;5.386;2023-05-14T11:34:29;16.07;;;9.43;;
64242;SDS011;50573;51.512;5.386;2023-05-14T11:44:32;11.60;;;8.63;;
64242;SDS011;50573;51.512;5.386;2023-05-14T11:54:36;12.43;;;6.23;;
64242;SDS011;50573;51.512;5.386;2023-05-14T12:04:39;11.80;;;6.43;;
64242;SDS011;50573;51.512;5.386;2023-05-14T12:14:45;11.05;;;6.72;;
64242;SDS011;50573;51.512;5.386;2023-05-14T12:24:52;10.40;;;5.00;;
64242;SDS011;50573;51.512;5.386;2023-05-14T12:34:57;12.10;;;5.60;;
64242;SDS011;50573;51.512;5.386;2023-05-14T12:45:01;8.45;;;3.90;;
64242;SDS011;50573;51.512;5.386;2023-05-14T12:55:09;5.45;;;3.15;;
64242;SDS011;50573;51.512;5.386;2023-05-14T13:05:12;9.95;;;3.65;;
64242;SDS011;50573;51.512;5.386;2023-05-14T13:15:16;16.23;;;3.42;;
64242;SDS011;50573;51.512;5.386;2023-05-14T13:25:20;12.05;;;5.28;;
64242;SDS011;50573;51.512;5.386;2023-05-14T13:35:25;9.35;;;4.47;;
64242;SDS011;50573;51.512;5.386;2023-05-14T13:45:28;7.43;;;5.10;;
64242;SDS011;50573;51.512;5.386;2023-05-14T13:55:33;7.88;;;5.10;;
64242;SDS011;50573;51.512;5.386;2023-05-14T14:05:36;9.00;;;4.47;;
64242;SDS011;50573;51.512;5.386;2023-05-14T14:25:44;7.65;;;4.40;;
64242;SDS011;50573;51.512;5.386;2023-05-14T14:45:52;11.23;;;4.35;;
64242;SDS011;50573;51.512;5.386;2023-05-14T15:05:59;13.20;;;4.80;;
64242;SDS011;50573;51.512;5.386;2023-05-14T15:16:03;8.05;;;3.78;;
64242;SDS011;50573;51.512;5.386;2023-05-14T15:26:07;10.50;;;4.50;;
64242;SDS011;50573;51.512;5.386;2023-05-14T15:36:12;16.75;;;13.23;;
64242;SDS011;50573;51.512;5.386;2023-05-14T15:46:15;74.53;;;49.13;;
64242;SDS011;50573;51.512;5.386;2023-05-14T15:56:20;21.00;;;8.30;;
64242;SDS011;50573;51.512;5.386;2023-05-14T16:06:23;18.10;;;8.70;;
64242;SDS011;50573;51.512;5.386;2023-05-14T16:16:28;24.98;;;17.15;;
64242;SDS011;50573;51.512;5.386;2023-05-14T16:26:32;32.00;;;18.63;;
64242;SDS011;50573;51.512;5.386;2023-05-14T16:36:37;12.65;;;8.65;;
64242;SDS011;50573;51.512;5.386;2023-05-14T16:46:40;14.10;;;6.88;;
64242;SDS011;50573;51.512;5.386;2023-05-14T16:56:44;9.93;;;6.03;;
64242;SDS011;50573;51.512;5.386;2023-05-14T17:06:48;15.88;;;7.25;;
64242;SDS011;50573;51.512;5.386;2023-05-14T17:16:53;19.43;;;10.30;;
64242;SDS011;50573;51.512;5.386;2023-05-14T17:26:56;25.35;;;14.10;;
64242;SDS011;50573;51.512;5.386;2023-05-14T17:37:01;23.63;;;10.40;;
64242;SDS011;50573;51.512;5.386;2023-05-14T17:47:04;23.95;;;12.30;;
64242;SDS011;50573;51.512;5.386;2023-05-14T17:57:10;23.92;;;12.30;;
64242;SDS011;50573;51.512;5.386;2023-05-14T18:07:13;22.15;;;14.15;;
64242;SDS011;50573;51.512;5.386;2023-05-14T18:17:18;26.87;;;15.13;;
64242;SDS011;50573;51.512;5.386;2023-05-14T18:27:21;29.35;;;15.13;;
64242;SDS011;50573;51.512;5.386;2023-05-14T18:37:25;28.42;;;16.13;;
64242;SDS011;50573;51.512;5.386;2023-05-14T18:57:32;26.35;;;17.17;;
64242;SDS011;50573;51.512;5.386;2023-05-14T19:07:36;30.40;;;17.08;;
64242;SDS011;50573;51.512;5.386;2023-05-14T19:17:40;31.73;;;17.25;;
64242;SDS011;50573;51.512;5.386;2023-05-14T19:27:43;32.30;;;18.25;;
64242;SDS011;50573;51.512;5.386;2023-05-14T19:37:52;27.70;;;18.95;;
64242;SDS011;50573;51.512;5.386;2023-05-14T19:47:55;27.98;;;17.92;;
64242;SDS011;50573;51.512;5.386;2023-05-14T19:58:00;37.97;;;21.42;;
64242;SDS011;50573;51.512;5.386;2023-05-14T20:08:03;33.88;;;20.85;;
64242;SDS011;50573;51.512;5.386;2023-05-14T20:18:09;40.08;;;22.55;;
64242;SDS011;50573;51.512;5.386;2023-05-14T20:28:12;38.40;;;22.90;;
64242;SDS011;50573;51.512;5.386;2023-05-14T20:38:17;36.00;;;23.13;;
64242;SDS011;50573;51.512;5.386;2023-05-14T20:48:20;35.78;;;23.05;;
64242;SDS011;50573;51.512;5.386;2023-05-14T20:58:25;32.42;;;23.38;;
64242;SDS011;50573;51.512;5.386;2023-05-14T21:08:28;38.50;;;24.70;;
64242;SDS011;50573;51.512;5.386;2023-05-14T21:18:34;46.70;;;26.98;;
64242;SDS011;50573;51.512;5.386;2023-05-14T21:28:37;39.20;;;24.40;;
64242;SDS011;50573;51.512;5.386;2023-05-14T21:38:42;42.00;;;28.23;;
64242;SDS011;50573;51.512;5.386;2023-05-14T21:48:45;40.55;;;26.48;;
64242;SDS011;50573;51.512;5.386;2023-05-14T21:58:49;40.78;;;26.75;;
64242;SDS011;50573;51.512;5.386;2023-05-14T22:08:52;45.20;;;31.00;;
64242;SDS011;50573;51.512;5.386;2023-05-14T22:18:56;37.13;;;28.33;;
64242;SDS011;50573;51.512;5.386;2023-05-14T22:28:59;40.40;;;28.80;;
64242;SDS011;50573;51.512;5.386;2023-05-14T22:39:04;45.22;;;30.67;;
64242;SDS011;50573;51.512;5.386;2023-05-14T22:49:07;46.20;;;32.43;;
64242;SDS011;50573;51.512;5.386;2023-05-14T22:59:11;43.45;;;31.13;;
64242;SDS011;50573;51.512;5.386;2023-05-14T23:09:14;45.08;;;31.77;;
64242;SDS011;50573;51.512;5.386;2023-05-14T23:19:19;48.88;;;33.05;;
64242;SDS011;50573;51.512;5.386;2023-05-14T23:29:23;43.35;;;33.25;;
64242;SDS011;50573;51.512;5.386;2023-05-14T23:39:27;55.80;;;35.53;;
64242;SDS011;50573;51.512;5.386;2023-05-14T23:49:30;50.77;;;35.17;;
64242;SDS011;50573;51.512;5.386;2023-05-14T23:59:36;52.40;;;35.03;;
